Latest Coastal Weather Observations for Dunalley

IDT60701

Issued at 11:02 pm EDT Friday 23 October 2020 (issued every 10 minutes, with the page automatically refreshed every 10 minutes)

About coastal observations | Map of coastal stations | Coastal observations for TAS | Marine services | Other Formats
Station Details ID: 094254 Name: DUNALLEY (STROUD POINT) Lat: -42.90 Lon: 147.79 Height: 12.43 m
Data from the previous 72 hours. | See also: Recent months at Dunalley
Date/Time
EDT
Wind Sea
Height
m
Swell Vis
km
Cloud Weather Temp
°C
Press
MSL
hPa
Rain since
9am
mm
Dir  Spd
kts
Gust
kts
Height
m
Period
s
Dir
23/11:00pm N 1 3 - - - - - - - 12.9 1004.2 0.0
23/10:30pm N 2 3 - - - - - - - 13.3 1004.8 0.0
23/10:00pm NNE 4 6 - - - - - - - 13.1 1005.0 0.0
23/09:30pm NNE 5 7 - - - - - - - 13.4 1005.3 0.0
23/09:00pm NNE 4 5 - - - - - - - 13.3 1005.4 0.0
23/08:30pm NNE 6 7 - - - - - - - 13.6 1005.4 0.0
23/08:00pm NNE 4 5 - - - - - - - 13.6 1005.4 0.0
23/07:30pm NE 7 10 - - - - - - - 13.8 1005.3 0.0
23/07:00pm NE 8 10 - - - - - - - 14.2 1005.3 0.0
23/06:30pm NNE 7 10 - - - - - - - 14.5 1005.2 0.0
23/06:00pm ENE 8 10 - - - - - - - 15.0 1005.5 0.0
23/05:30pm NE 10 12 - - - - - - - 15.2 1005.4 0.0
23/05:00pm NE 9 12 - - - - - - - 15.2 1005.5 0.0
23/04:30pm NE 9 12 - - - - - - - 15.8 1005.5 0.0
23/04:00pm E 4 7 - - - - - - - 16.7 1005.5 0.0
23/03:30pm SSE 6 8 - - - - - - - 16.5 1005.7 0.0
23/03:00pm SSE 8 9 - - - - - - - 17.3 1006.0 0.0
23/02:30pm S 8 12 - - - - - - - 17.1 1006.4 0.0
23/02:00pm SSW 7 9 - - - - - - - 16.6 1006.9 0.0
23/01:30pm SSW 6 7 - - - - - - - 15.7 1007.3 0.0
23/01:00pm ENE 4 5 - - - - - - - 15.5 1007.6 0.0
23/12:30pm ENE 3 3 - - - - - - - 15.6 1007.9 0.0
23/12:00pm ENE 2 3 - - - - - - - 15.0 1008.2 0.0
23/11:30am ENE 3 4 - - - - - - - 15.6 1008.5 0.0
23/11:00am ENE 5 6 - - - - - - - 15.4 1008.9 0.0
23/10:30am ENE 8 11 - - - - - - - 14.9 1009.3 0.0
23/10:00am NE 9 12 - - - - - - - 15.3 1009.4 0.0
23/09:30am ENE 8 10 - - - - - - - 15.0 1009.7 0.0
23/09:00am NE 7 9 - - - - - - - 14.9 1009.7 0.0
23/08:30am N 6 10 - - - - - - - 14.7 1010.2 0.0
23/08:00am NE 6 8 - - - - - - - 14.2 1010.4 0.0
23/07:30am NE 7 10 - - - - - - - 13.6 1010.5 0.0
23/07:00am NE 6 10 - - - - - - - 12.6 1010.4 0.0
23/06:30am ENE 1 3 - - - - - - - 12.0 1010.5 0.0
23/06:00am ENE 2 4 - - - - - - - 11.4 1010.5 0.0
23/05:30am ENE 6 8 - - - - - - - 11.9 1010.4 0.0
23/05:00am N 2 3 - - - - - - - 12.7 1010.7 0.0
23/04:30am ENE 3 7 - - - - - - - 12.8 1010.9 0.0
23/04:00am N 4 7 - - - - - - - 13.0 1011.0 0.0
23/03:30am N 8 11 - - - - - - - 13.1 1011.4 0.0
23/03:00am NNE 7 9 - - - - - - - 12.9 1011.7 0.0
23/02:30am NNE 9 11 - - - - - - - 12.8 1012.0 0.0
23/02:00am NE 10 13 - - - - - - - 12.8 1012.6 0.0
23/01:30am NNE 12 15 - - - - - - - 12.7 1013.0 0.0
23/01:00am NE 15 17 - - - - - - - 12.6 1013.2 0.0
23/12:30am NE 14 19 - - - - - - - 12.7 1013.6 0.0
23/12:00am NE 13 16 - - - - - - - 12.3 1014.1 0.0
 
Date/Time
EDT
Wind Sea
Height
m
Swell Vis
km
Cloud Weather Temp
°C
Press
MSL
hPa
Rain since
9am
mm
Dir  Spd
kts
Gust
kts
Height
m
Period
s
Dir
22/11:30pm NE 14 17 - - - - - - - 11.9 1014.5 0.0
22/11:00pm NE 13 17 - - - - - - - 12.5 1014.8 0.0
22/10:30pm NE 12 17 - - - - - - - 12.5 1015.2 0.0
22/10:00pm NE 13 17 - - - - - - - 12.5 1015.5 0.0
22/09:30pm NE 16 20 - - - - - - - 12.7 1015.6 0.0
22/09:00pm NE 15 18 - - - - - - - 12.6 1015.4 0.0
22/08:30pm ENE 13 18 - - - - - - - 12.7 1015.5 0.0
22/08:00pm ENE 13 16 - - - - - - - 12.7 1015.6 0.0
22/07:30pm ENE 13 17 - - - - - - - 12.7 1015.5 0.0
22/07:00pm ENE 15 19 - - - - - - - 12.7 1015.3 0.0
22/06:30pm ENE 14 18 - - - - - - - 12.8 1015.2 0.0
22/06:00pm ENE 15 19 - - - - - - - 12.9 1015.1 0.0
22/05:30pm ENE 15 20 - - - - - - - 13.1 1015.1 0.0
22/05:00pm ENE 16 20 - - - - - - - 14.3 1015.0 0.0
22/04:30pm ENE 13 18 - - - - - - - 13.5 1015.4 0.0
22/04:00pm ENE 14 18 - - - - - - - 13.9 1015.4 0.0
22/03:30pm ENE 14 18 - - - - - - - 14.9 1015.5 0.0
22/03:00pm NE 14 17 - - - - - - - 15.0 1015.6 0.0
22/02:30pm NE 13 16 - - - - - - - 15.3 1015.9 0.0
22/02:00pm NE 12 15 - - - - - - - 15.0 1016.2 0.0
22/01:30pm NE 12 14 - - - - - - - 14.4 1016.2 0.0
22/01:00pm NE 12 17 - - - - - - - 14.3 1016.3 0.0
22/12:30pm NE 9 11 - - - - - - - 14.7 1016.5 0.0
22/12:00pm SSE 3 6 - - - - - - - 14.2 1016.8 0.0
22/11:30am SSE 2 3 - - - - - - - 13.4 1017.1 0.0
22/11:00am SSE 2 3 - - - - - - - 13.4 1017.2 0.0
22/10:30am SSE 2 3 - - - - - - - 12.9 1017.3 0.0
22/10:00am SSE 2 2 - - - - - - - 13.4 1017.4 0.0
22/09:30am SSE 1 2 - - - - - - - 13.1 1017.6 0.0
22/09:00am SSE 2 3 - - - - - - - 12.2 1017.5 3.0
22/08:30am SSE 1 2 - - - - - - - 11.7 1017.3 3.0
22/08:00am SSE 3 3 - - - - - - - 11.2 1017.2 3.0
22/07:30am CALM 0 0 - - - - - - - 10.8 1017.0 3.0
22/07:00am SSE 1 2 - - - - - - - 10.3 1016.7 3.0
22/06:30am SSE 1 2 - - - - - - - 9.7 1016.6 3.0
22/06:00am SSE 2 3 - - - - - - Recent precip. 9.9 1016.2 3.0
22/05:30am SSE 3 4 - - - - - - - 10.2 1016.2 3.0
22/05:00am S 7 9 - - - - - - - 10.3 1016.2 1.6
22/04:30am S 8 10 - - - - - - - 10.8 1016.0 0.2
22/04:00am SSE 7 10 - - - - - - - 11.0 1015.9 0.2
22/03:30am S 4 5 - - - - - - - 11.2 1015.9 0.0
22/03:00am SSW 4 5 - - - - - - - 11.4 1015.8 0.0
22/02:30am SSW 2 3 - - - - - - - 11.1 1016.0 0.0
22/02:00am SSW 2 3 - - - - - - - 11.2 1016.1 0.0
22/01:30am CALM 0 2 - - - - - - - 11.5 1016.4 0.0
22/01:00am SSW 1 2 - - - - - - - 11.4 1016.5 0.0
22/12:30am SSW 4 5 - - - - - - - 11.4 1016.4 0.0
22/12:00am SSW 7 9 - - - - - - - 11.7 1016.5 0.0
 
Date/Time
EDT
Wind Sea
Height
m
Swell Vis
km
Cloud Weather Temp
°C
Press
MSL
hPa
Rain since
9am
mm
Dir  Spd
kts
Gust
kts
Height
m
Period
s
Dir
21/11:30pm E 3 4 - - - - - - - 11.9 1016.4 0.0
21/11:00pm E 1 2 - - - - - - - 11.9 1016.4 0.0
21/10:30pm E 1 2 - - - - - - - 11.9 1016.4 0.0
21/10:00pm E 3 4 - - - - - - - 12.4 1016.3 0.0
21/09:30pm E 3 3 - - - - - - - 12.4 1016.3 0.0
21/09:00pm E 3 4 - - - - - - - 12.3 1016.0 0.0
21/08:30pm E 4 5 - - - - - - - 12.7 1015.6 0.0
21/08:00pm E 5 6 - - - - - - - 12.8 1015.3 0.0
21/07:30pm ENE 7 9 - - - - - - - 12.9 1014.8 0.0
21/07:00pm NE 10 12 - - - - - - - 13.2 1014.4 0.0
21/06:30pm NE 10 13 - - - - - - - 13.9 1014.1 0.0
21/06:00pm NE 13 15 - - - - - - - 14.7 1013.7 0.0
21/05:30pm NE 13 15 - - - - - - - 14.2 1013.7 0.0
21/05:00pm NE 13 15 - - - - - - - 14.7 1013.6 0.0
21/04:30pm NE 11 14 - - - - - - - 14.7 1013.5 0.0
21/04:00pm NE 10 13 - - - - - - - 15.2 1013.5 0.0
21/03:30pm SW 2 4 - - - - - - - 15.8 1013.6 0.0
21/03:00pm SW 4 7 - - - - - - - 16.6 1014.0 0.0
21/02:30pm S 4 4 - - - - - - - 16.4 1014.2 0.0
21/02:00pm SW 3 4 - - - - - - - 16.1 1014.2 0.0
21/01:30pm WSW 4 5 - - - - - - - 16.4 1014.0 0.0
21/01:00pm W 6 8 - - - - - - - 16.3 1014.4 0.0
21/12:30pm WSW 7 8 - - - - - - - 15.8 1014.6 0.0
21/12:00pm WSW 7 9 - - - - - - - 15.6 1014.8 0.0
21/11:30am WSW 6 7 - - - - - - - 14.7 1015.0 0.0
21/11:00am WSW 6 8 - - - - - - - 14.5 1015.2 0.0
21/10:30am WSW 4 5 - - - - - - - 14.0 1015.2 0.0
21/10:00am WSW 4 6 - - - - - - - 13.5 1015.4 0.0
21/09:30am WNW 5 7 - - - - - - - 13.4 1015.7 0.0
21/09:00am WNW 3 5 - - - - - - - 12.3 1015.7 0.0
21/08:30am WNW 3 4 - - - - - - - 12.1 1015.7 0.0
21/08:00am WNW 4 6 - - - - - - - 12.0 1015.5 0.0
21/07:30am NW 5 6 - - - - - - - 11.7 1015.4 0.0
21/07:00am WSW 6 7 - - - - - - - 12.2 1015.3 0.0
21/06:30am SW 6 7 - - - - - - - 12.2 1015.0 0.0
21/06:00am SW 6 7 - - - - - - - 12.2 1014.9 0.0
21/05:30am SW 6 8 - - - - - - - 12.2 1014.6 0.0
21/05:00am SW 6 8 - - - - - - - 12.3 1014.4 0.0
21/04:30am S 4 6 - - - - - - - 12.0 1014.5 0.0
21/04:00am S 5 6 - - - - - - - 12.0 1014.4 0.0
21/03:30am S 5 7 - - - - - - - 12.0 1014.5 0.0
21/03:00am S 6 7 - - - - - - - 12.1 1014.8 0.0
21/02:30am SSE 5 7 - - - - - - - 12.1 1014.9 0.0
21/02:00am SSE 4 6 - - - - - - - 12.0 1014.9 0.0
21/01:30am SSE 8 9 - - - - - - - 12.1 1015.1 0.0
21/01:00am SSE 7 8 - - - - - - - 12.1 1015.2 0.0
21/12:30am SSE 8 9 - - - - - - - 12.2 1015.4 0.0
21/12:00am S 8 9 - - - - - - - 12.4 1015.5 0.0
 
Date/Time
EDT
Wind Sea
Height
m
Swell Vis
km
Cloud Weather Temp
°C
Press
MSL
hPa
Rain since
9am
mm
Dir  Spd
kts
Gust
kts
Height
m
Period
s
Dir
20/11:30pm SSE 7 9 - - - - - - - 12.4 1015.5 0.0

Other formats

Comma delimited format used in spreadsheet applications
http://www.bom.gov.au/fwo/IDT60701/IDT60701.94951.axf

JavaScript Object Notation format (JSON) in row-major order
http://www.bom.gov.au/fwo/IDT60701/IDT60701.94951.json

Data quality

Most of these data are generated automatically and are frequently updated. Quality checks on data are not normally performed. It is possible for incorrect values to appear. Refer to information at About Latest Weather Observations and please check the disclaimer before using these data.